Time;durP1;ratioP1;P1;durP2;ratioP2;P2;SDS_P1;SDS_P2;PMS_P1;PMS_P2;Temp;Humidity;BMP_temperature;BMP_pressure;BME280_temperature;BME280_humidity;BME280_pressure;Samples;Min_cycle;Max_cycle;Signal;HPM_P1;HPM_P2
2021/07/12 00:00:47;;;;;;;7.40;5.60;;;17.20;99.90;;;;;;5041294;28;20480;-86
2021/07/12 00:03:14;;;;;;;5.90;5.40;;;17.30;99.90;;;;;;5041801;28;20447;-86
2021/07/12 00:05:41;;;;;;;10.63;6.10;;;17.30;99.90;;;;;;5041407;28;20450;-85
2021/07/12 00:08:09;;;;;;;7.03;6.07;;;17.30;99.90;;;;;;5041754;28;20468;-86
2021/07/12 00:10:37;;;;;;;6.67;6.07;;;17.20;99.90;;;;;;5041457;28;20457;-86
2021/07/12 00:13:04;;;;;;;7.23;5.97;;;17.10;99.90;;;;;;5041684;28;20456;-86
2021/07/12 00:15:32;;;;;;;9.70;8.43;;;17.10;99.90;;;;;;5040308;28;20954;-86
2021/07/12 00:18:00;;;;;;;10.33;9.07;;;17.10;99.90;;;;;;5041330;28;20465;-86
2021/07/12 00:20:27;;;;;;;9.77;8.53;;;17.00;99.90;;;;;;5041795;28;20453;-86
2021/07/12 00:22:55;;;;;;;10.07;7.53;;;17.00;99.90;;;;;;5041268;28;20739;-86
2021/07/12 00:25:23;;;;;;;9.10;8.20;;;16.90;99.90;;;;;;5041024;28;20829;-86
2021/07/12 00:27:50;;;;;;;9.20;7.33;;;16.90;99.90;;;;;;5040339;28;20476;-86
2021/07/12 00:30:20;;;;;;;9.97;8.10;;;16.90;99.90;;;;;;5039853;28;20859;-86
2021/07/12 00:32:47;;;;;;;9.67;8.00;;;17.00;99.90;;;;;;5039911;28;20456;-86
2021/07/12 00:35:15;;;;;;;8.53;7.60;;;17.00;99.90;;;;;;5039942;28;20460;-86
2021/07/12 00:37:42;;;;;;;8.10;7.33;;;17.00;99.90;;;;;;5039087;28;20474;-86
2021/07/12 00:40:12;;;;;;;10.27;6.63;;;17.00;99.90;;;;;;5039062;28;20476;-86
2021/07/12 00:42:40;;;;;;;7.73;7.00;;;16.90;99.90;;;;;;5038181;28;20448;-86
2021/07/12 00:45:10;;;;;;;6.90;6.00;;;17.00;99.90;;;;;;5039320;28;20441;-86
2021/07/12 00:47:37;;;;;;;8.03;6.80;;;16.90;99.90;;;;;;5039507;28;20547;-85
2021/07/12 00:50:06;;;;;;;7.37;6.63;;;16.90;99.90;;;;;;5045057;28;20452;-85
2021/07/12 00:52:33;;;;;;;7.83;6.77;;;16.90;99.90;;;;;;5054744;28;20467;-85
2021/07/12 00:55:00;;;;;;;8.80;6.73;;;16.90;99.90;;;;;;5041206;28;20437;-86
2021/07/12 00:57:27;;;;;;;7.30;6.60;;;16.90;99.90;;;;;;5043556;28;20476;-86
2021/07/12 00:59:55;;;;;;;11.47;7.23;;;16.90;99.90;;;;;;5047922;28;20483;-86
2021/07/12 01:02:22;;;;;;;9.27;6.93;;;16.80;99.90;;;;;;5040399;28;20443;-86
2021/07/12 01:04:49;;;;;;;7.50;6.80;;;16.70;99.90;;;;;;5038091;28;20445;-86
2021/07/12 01:07:15;;;;;;;8.83;7.93;;;16.70;99.90;;;;;;5042533;28;20481;-86
2021/07/12 01:09:44;;;;;;;9.40;7.80;;;16.70;99.90;;;;;;5044085;28;20444;-86
2021/07/12 01:12:21;;;;;;;8.23;7.53;;;16.60;99.90;;;;;;5045964;28;20450;-87
2021/07/12 01:14:51;;;;;;;7.77;6.97;;;16.60;99.90;;;;;;5042070;28;20587;-86
2021/07/12 01:17:24;;;;;;;11.03;6.90;;;16.60;99.90;;;;;;5043919;28;20465;-85
2021/07/12 01:20:22;;;;;;;8.20;7.40;;;16.50;99.90;;;;;;5057682;28;20469;-85
2021/07/12 01:23:12;;;;;;;8.17;7.40;;;16.40;99.90;;;;;;5048203;28;20476;-86
2021/07/12 01:26:17;;;;;;;8.67;6.37;;;16.40;99.90;;;;;;5049865;28;20803;-85
2021/07/12 01:29:06;;;;;;;9.17;6.70;;;16.40;99.90;;;;;;5047186;28;20466;-86
2021/07/12 01:32:02;;;;;;;6.87;6.27;;;16.40;99.90;;;;;;5040930;28;20437;-86
2021/07/12 01:34:37;;;;;;;7.63;6.37;;;16.30;99.90;;;;;;5040652;28;20449;-85
2021/07/12 01:37:13;;;;;;;7.23;6.53;;;16.30;99.90;;;;;;5041420;28;21269;-86
2021/07/12 01:39:44;;;;;;;6.83;6.17;;;16.20;99.90;;;;;;5041713;28;20496;-86
2021/07/12 01:42:19;;;;;;;7.47;6.60;;;16.20;99.90;;;;;;5042263;28;20462;-86
2021/07/12 01:44:57;;;;;;;7.27;6.20;;;16.10;99.90;;;;;;5041256;28;20447;-86
2021/07/12 01:47:33;;;;;;;5.93;5.40;;;16.10;99.90;;;;;;5055575;28;20488;-85
2021/07/12 01:50:06;;;;;;;6.70;6.10;;;16.20;99.90;;;;;;5036866;28;20449;-85
2021/07/12 01:52:39;;;;;;;6.17;5.57;;;16.10;99.90;;;;;;5035312;28;20457;-85
2021/07/12 01:55:14;;;;;;;6.60;6.00;;;16.10;99.90;;;;;;5042422;28;20462;-86
2021/07/12 01:57:50;;;;;;;6.40;5.80;;;16.10;99.90;;;;;;5042523;28;20464;-85
2021/07/12 02:00:19;;;;;;;9.67;5.90;;;16.10;99.90;;;;;;5041364;28;20481;-86
2021/07/12 02:02:50;;;;;;;9.73;6.60;;;16.10;99.90;;;;;;5041315;28;20446;-85
2021/07/12 02:05:22;;;;;;;8.97;6.20;;;16.00;99.90;;;;;;5041344;28;20441;-85
2021/07/12 02:07:50;;;;;;;5.67;5.17;;;16.00;99.90;;;;;;5040736;28;20467;-85
2021/07/12 02:10:19;;;;;;;6.83;6.23;;;16.00;99.90;;;;;;5040310;28;20448;-85
2021/07/12 02:12:50;;;;;;;7.83;6.93;;;16.00;99.90;;;;;;5040926;28;20454;-85
2021/07/12 02:15:18;;;;;;;7.70;6.23;;;16.00;99.90;;;;;;5041637;28;20449;-86
2021/07/12 02:17:47;;;;;;;6.97;6.17;;;15.90;99.90;;;;;;5040497;28;20470;-86
2021/07/12 02:20:16;;;;;;;7.07;6.43;;;15.90;99.90;;;;;;5039428;28;20551;-84
2021/07/12 02:22:46;;;;;;;7.50;6.33;;;15.90;99.90;;;;;;5039355;28;20453;-86
2021/07/12 02:25:16;;;;;;;7.90;7.20;;;15.80;99.90;;;;;;5039516;28;20877;-86
2021/07/12 02:27:44;;;;;;;10.53;6.80;;;15.80;99.90;;;;;;5038407;28;20465;-86
2021/07/12 02:30:12;;;;;;;12.73;7.00;;;15.70;99.90;;;;;;5041373;28;20417;-82
2021/07/12 02:32:41;;;;;;;9.03;6.93;;;15.70;99.90;;;;;;5053497;28;20470;-86
2021/07/12 02:35:10;;;;;;;9.50;6.83;;;15.80;99.90;;;;;;5048664;28;20449;-86
2021/07/12 02:37:39;;;;;;;8.30;6.90;;;15.70;99.90;;;;;;5040417;28;20480;-86
2021/07/12 02:40:10;;;;;;;10.87;7.63;;;15.80;99.90;;;;;;5039376;28;20481;-86
2021/07/12 02:42:40;;;;;;;7.77;6.97;;;15.70;99.90;;;;;;5038480;28;20452;-85
2021/07/12 02:45:08;;;;;;;8.87;7.00;;;15.70;99.90;;;;;;5039143;28;20445;-85
2021/07/12 02:47:35;;;;;;;10.13;7.50;;;15.70;99.90;;;;;;5038382;28;20477;-85
2021/07/12 02:50:03;;;;;;;8.33;7.53;;;15.60;99.90;;;;;;5039075;28;20446;-85
2021/07/12 02:52:33;;;;;;;12.03;8.23;;;15.60;99.90;;;;;;5038844;28;20453;-86
2021/07/12 02:55:01;;;;;;;10.17;7.13;;;15.60;99.90;;;;;;5038004;28;20501;-86
2021/07/12 02:57:29;;;;;;;8.27;7.40;;;15.60;99.90;;;;;;5037696;28;20465;-86
2021/07/12 02:59:56;;;;;;;8.73;7.93;;;15.60;99.90;;;;;;5037911;28;20480;-85
2021/07/12 03:02:23;;;;;;;7.23;6.40;;;15.50;99.90;;;;;;5035853;28;20449;-86
2021/07/12 03:04:50;;;;;;;9.53;8.53;;;15.50;99.90;;;;;;5035525;28;20453;-86
2021/07/12 03:07:23;;;;;;;8.57;6.97;;;15.50;99.90;;;;;;5039367;28;20469;-85
2021/07/12 03:09:53;;;;;;;8.33;7.27;;;15.50;99.90;;;;;;5041357;28;20472;-86
2021/07/12 03:12:28;;;;;;;10.70;7.87;;;15.60;99.90;;;;;;5055381;28;20441;-84
2021/07/12 03:15:02;;;;;;;10.07;7.20;;;15.50;99.90;;;;;;5055764;28;20476;-85
2021/07/12 03:17:30;;;;;;;8.80;7.13;;;15.50;99.90;;;;;;5044680;28;20470;-85
2021/07/12 03:19:59;;;;;;;7.93;7.10;;;15.40;99.90;;;;;;5046273;28;20511;-85
2021/07/12 03:22:27;;;;;;;9.37;7.73;;;15.50;99.90;;;;;;5057298;28;20437;-86
2021/07/12 03:24:57;;;;;;;7.20;6.50;;;15.50;99.90;;;;;;5044168;28;20861;-86
2021/07/12 03:27:24;;;;;;;6.90;6.20;;;15.50;99.90;;;;;;5042645;28;20477;-86
2021/07/12 03:29:52;;;;;;;7.80;6.47;;;15.50;99.90;;;;;;5043297;28;20449;-86
2021/07/12 03:32:24;;;;;;;7.07;6.30;;;15.50;99.90;;;;;;5041858;28;20441;-86
2021/07/12 03:34:52;;;;;;;9.10;5.60;;;15.50;99.90;;;;;;5041592;28;20455;-86
2021/07/12 03:37:20;;;;;;;6.17;5.40;;;15.50;99.90;;;;;;5042966;28;20468;-86
2021/07/12 03:39:48;;;;;;;8.30;6.57;;;15.50;99.90;;;;;;5042226;28;20528;-86
2021/07/12 03:42:14;;;;;;;6.67;6.00;;;15.40;99.90;;;;;;5051801;28;20433;-84
2021/07/12 03:44:41;;;;;;;6.70;5.83;;;15.50;99.90;;;;;;5050493;28;20446;-85
2021/07/12 03:47:11;;;;;;;5.90;5.40;;;15.50;99.90;;;;;;5037380;28;20496;-85
2021/07/12 03:49:39;;;;;;;5.67;5.03;;;15.40;99.90;;;;;;5071964;22;20488;-88
2021/07/12 03:52:06;;;;;;;6.43;5.83;;;15.40;99.90;;;;;;5065346;28;20443;-88
2021/07/12 03:54:33;;;;;;;7.73;6.70;;;15.50;99.90;;;;;;5057734;28;20444;-88
2021/07/12 03:57:00;;;;;;;9.03;6.50;;;15.50;99.90;;;;;;5056107;28;20456;-89
2021/07/12 03:59:26;;;;;;;7.40;6.30;;;15.50;99.90;;;;;;5055606;28;20487;-88
2021/07/12 04:01:53;;;;;;;8.30;7.50;;;15.50;99.90;;;;;;5056012;28;20440;-88
2021/07/12 04:04:20;;;;;;;7.97;7.17;;;15.50;99.90;;;;;;5055547;28;20490;-88
2021/07/12 04:06:48;;;;;;;8.60;7.80;;;15.50;99.90;;;;;;5055092;28;20440;-88
2021/07/12 04:09:14;;;;;;;8.07;6.80;;;15.50;99.90;;;;;;5055193;28;21011;-89
2021/07/12 04:11:41;;;;;;;8.70;7.70;;;15.50;99.90;;;;;;5054361;28;20954;-88
2021/07/12 04:14:08;;;;;;;8.83;7.20;;;15.50;99.90;;;;;;5035300;28;20449;-88
2021/07/12 04:16:35;;;;;;;11.13;7.17;;;15.60;99.90;;;;;;5035640;28;20455;-88
2021/07/12 04:19:01;;;;;;;11.30;7.23;;;15.60;99.90;;;;;;5055713;28;20466;-87
2021/07/12 04:21:28;;;;;;;6.90;6.20;;;15.60;99.90;;;;;;5043740;28;20441;-88
2021/07/12 04:23:56;;;;;;;7.40;6.70;;;15.50;99.90;;;;;;5068178;28;20444;-88
2021/07/12 04:26:23;;;;;;;7.70;7.00;;;15.50;99.90;;;;;;5079230;28;20432;-89
2021/07/12 04:28:50;;;;;;;7.10;6.50;;;15.50;99.90;;;;;;5078837;28;20445;-89
2021/07/12 04:31:16;;;;;;;8.37;7.57;;;15.60;99.90;;;;;;5070913;28;20447;-89
2021/07/12 04:33:45;;;;;;;7.27;6.57;;;15.70;99.90;;;;;;5070630;28;20445;-88
2021/07/12 04:36:13;;;;;;;8.27;6.63;;;15.70;99.90;;;;;;5069522;28;20441;-88
2021/07/12 04:38:40;;;;;;;6.47;5.83;;;15.80;99.90;;;;;;5072790;28;20475;-88
2021/07/12 04:41:08;;;;;;;7.53;6.57;;;15.80;99.90;;;;;;5067625;28;20653;-88
2021/07/12 04:43:34;;;;;;;8.70;5.43;;;15.80;99.90;;;;;;5064414;28;20448;-86
2021/07/12 04:46:01;;;;;;;9.03;6.83;;;15.90;99.90;;;;;;5057029;28;20972;-86
2021/07/12 04:48:28;;;;;;;8.33;6.83;;;15.90;99.90;;;;;;5057607;28;20476;-87
2021/07/12 04:51:46;;;;;;;12.30;6.50;;;15.90;99.90;;;;;;5058755;28;20452;-90
2021/07/12 04:54:37;;;;;;;9.00;6.53;;;16.00;99.90;;;;;;5061044;28;20862;-93
2021/07/12 04:57:51;;;;;;;13.60;7.50;;;16.00;99.90;;;;;;5059643;28;20462;-93
2021/07/12 05:00:49;;;;;;;9.03;7.57;;;16.10;99.90;;;;;;5052477;28;20500;-92
2021/07/12 05:03:54;;;;;;;14.20;8.87;;;16.20;99.90;;;;;;5062157;28;21010;-92
2021/07/12 05:09:42;;;;;;;8.97;6.63;;;16.30;99.90;;;;;;4980095;28;20819;-88
2021/07/12 05:54:06;;;;;;;8.73;5.40;;;23.10;99.90;;;;;;4962591;28;20468;-92
2021/07/12 06:00:07;;;;;;;9.40;4.77;;;24.30;97.90;;;;;;4855283;29;20497;-90
2021/07/12 06:09:41;;;;;;;7.10;5.90;;;25.10;94.60;;;;;;4938782;28;21116;-91
2021/07/12 06:12:43;;;;;;;6.30;5.53;;;25.40;94.10;;;;;;4963123;28;20456;-94
2021/07/12 06:15:36;;;;;;;9.90;6.00;;;25.40;93.40;;;;;;4963942;29;20459;-93
2021/07/12 06:22:47;;;;;;;6.57;5.67;;;26.30;92.10;;;;;;4914964;29;20503;-94
2021/07/12 06:29:21;;;;;;;5.93;4.00;;;26.10;90.90;;;;;;4970569;28;20466;-93
2021/07/12 06:31:48;;;;;;;6.97;4.10;;;25.90;91.50;;;;;;5006893;28;20537;-92
2021/07/12 06:34:15;;;;;;;4.17;3.87;;;26.20;90.80;;;;;;5020110;28;20460;-90
2021/07/12 06:36:41;;;;;;;4.93;4.43;;;26.70;90.40;;;;;;5022030;28;20450;-90
2021/07/12 06:39:08;;;;;;;9.80;5.40;;;27.00;88.40;;;;;;5018216;28;20486;-90
2021/07/12 06:41:36;;;;;;;6.83;4.60;;;27.40;87.40;;;;;;5019513;28;20477;-90
2021/07/12 06:44:03;;;;;;;5.93;4.70;;;27.60;85.80;;;;;;5021767;28;20444;-90
2021/07/12 06:46:30;;;;;;;7.03;4.27;;;27.80;85.10;;;;;;5023627;28;20969;-89
2021/07/12 06:48:57;;;;;;;8.97;3.87;;;27.90;83.70;;;;;;5024419;28;20997;-91
2021/07/12 06:51:24;;;;;;;4.20;3.50;;;27.80;84.10;;;;;;5021951;28;20811;-89
2021/07/12 06:53:50;;;;;;;4.30;3.17;;;27.50;85.70;;;;;;5025077;28;20458;-91
2021/07/12 06:56:17;;;;;;;3.27;3.00;;;27.90;84.60;;;;;;5025412;28;20457;-91
2021/07/12 06:58:46;;;;;;;4.57;3.77;;;28.20;84.10;;;;;;5022398;28;21021;-91
2021/07/12 07:01:13;;;;;;;3.33;3.03;;;28.30;82.20;;;;;;5038206;28;20508;-91
2021/07/12 07:03:40;;;;;;;4.13;3.50;;;28.30;82.20;;;;;;5030585;28;20434;-92
2021/07/12 07:06:07;;;;;;;4.87;2.90;;;28.20;82.20;;;;;;5032734;28;20450;-90
2021/07/12 07:08:40;;;;;;;3.40;3.10;;;28.30;81.00;;;;;;5022655;28;20869;-90
2021/07/12 07:11:46;;;;;;;4.80;3.47;;;28.00;81.10;;;;;;5020788;28;20544;-91
2021/07/12 07:14:52;;;;;;;3.90;3.43;;;27.60;82.50;;;;;;4951227;29;20524;-90
2021/07/12 07:18:24;;;;;;;3.57;3.27;;;27.70;84.10;;;;;;4917780;29;20490;-93
2021/07/12 07:28:35;;;;;;;3.40;2.73;;;27.20;84.60;;;;;;4825709;29;20449;-91
2021/07/12 08:19:29;;;;;;;2.20;2.10;;;32.00;64.60;;;;;;4842040;29;20595;-90
2021/07/12 08:29:53;;;;;;;;;;;;;;;;;;;;;
2021/07/12 08:32:28;;;;;;;1.93;1.83;;;33.10;61.50;;;;;;4998853;28;20458;-90
2021/07/12 10:22:49;;;;;;;2.13;1.93;;;37.90;43.60;;;;;;5015805;28;20439;-92
2021/07/12 10:25:25;;;;;;;2.87;1.77;;;36.50;45.70;;;;;;5010897;28;20478;-91
2021/07/12 10:27:54;;;;;;;1.60;1.50;;;36.70;45.30;;;;;;5008694;28;20450;-91
2021/07/12 10:30:24;;;;;;;2.30;2.00;;;36.30;45.70;;;;;;5005036;28;20475;-90
2021/07/12 10:32:53;;;;;;;1.87;1.67;;;35.80;46.70;;;;;;5005281;28;20448;-90
2021/07/12 10:35:40;;;;;;;1.60;1.50;;;35.50;46.20;;;;;;4999207;28;20447;-88
2021/07/12 10:38:09;;;;;;;2.93;1.77;;;34.30;49.60;;;;;;5002443;28;20498;-88
2021/07/12 10:41:07;;;;;;;2.30;1.97;;;33.50;49.60;;;;;;5012145;28;20551;-89
2021/07/12 10:43:50;;;;;;;3.80;2.10;;;32.70;50.80;;;;;;5005072;28;20450;-87
2021/07/12 10:46:42;;;;;;;2.03;1.87;;;32.20;52.50;;;;;;4995027;28;20518;-88
2021/07/12 10:49:39;;;;;;;2.20;2.10;;;32.00;52.60;;;;;;4998712;28;20447;-88
2021/07/12 10:52:06;;;;;;;3.07;2.10;;;32.20;54.40;;;;;;4995646;28;20431;-88
2021/07/12 10:54:59;;;;;;;2.20;2.00;;;32.70;51.70;;;;;;4998961;28;21010;-91
2021/07/12 10:57:28;;;;;;;2.00;1.80;;;33.20;51.30;;;;;;4997160;28;20474;-89
2021/07/12 11:00:09;;;;;;;1.63;1.53;;;33.20;51.30;;;;;;4999662;28;21023;-88
2021/07/12 11:02:36;;;;;;;2.00;1.90;;;33.10;51.50;;;;;;5005734;28;20482;-90
2021/07/12 11:05:05;;;;;;;3.00;2.53;;;32.70;52.20;;;;;;4998682;28;20446;-89
2021/07/12 11:07:41;;;;;;;3.07;2.10;;;32.00;53.80;;;;;;4998713;28;20458;-89
2021/07/12 11:10:23;;;;;;;2.03;1.93;;;31.30;54.40;;;;;;5001088;28;20475;-90
2021/07/12 11:12:53;;;;;;;2.33;2.13;;;30.20;56.60;;;;;;5000453;28;20449;-89
2021/07/12 11:16:16;;;;;;;3.00;2.20;;;29.90;57.90;;;;;;5000291;28;20937;-90
2021/07/12 11:18:43;;;;;;;1.97;1.87;;;29.90;58.10;;;;;;4992004;28;20463;-90
2021/07/12 11:21:12;;;;;;;1.87;1.77;;;30.10;57.30;;;;;;4989895;28;20484;-88
2021/07/12 11:23:56;;;;;;;2.20;2.00;;;30.80;56.70;;;;;;4994636;28;20471;-89
2021/07/12 11:26:45;;;;;;;2.33;1.80;;;31.40;55.40;;;;;;4991967;28;20475;-89
2021/07/12 11:29:32;;;;;;;1.93;1.83;;;32.10;54.00;;;;;;4997276;28;20474;-89
2021/07/12 11:32:08;;;;;;;1.93;1.73;;;33.20;52.80;;;;;;5004639;28;20439;-88
2021/07/12 11:34:39;;;;;;;2.50;1.80;;;33.60;51.00;;;;;;5006224;28;20447;-88
2021/07/12 11:37:07;;;;;;;2.27;2.07;;;34.50;50.30;;;;;;5005851;28;20533;-89
2021/07/12 11:39:37;;;;;;;2.77;2.20;;;34.90;49.70;;;;;;5005249;28;20557;-89
2021/07/12 11:42:38;;;;;;;2.10;1.90;;;35.90;48.70;;;;;;4986711;28;20773;-89
2021/07/12 11:45:07;;;;;;;1.87;1.77;;;36.10;47.30;;;;;;4987850;28;20455;-90
2021/07/12 11:47:36;;;;;;;2.53;2.00;;;36.80;46.90;;;;;;4998378;28;20457;-89
2021/07/12 11:50:06;;;;;;;2.13;1.93;;;36.90;46.80;;;;;;5013194;28;20455;-87
2021/07/12 11:52:34;;;;;;;1.80;1.70;;;37.20;45.80;;;;;;5015962;28;20469;-88
2021/07/12 11:55:10;;;;;;;2.00;1.67;;;36.40;44.60;;;;;;4999313;28;20457;-88
2021/07/12 11:57:40;;;;;;;2.00;1.90;;;36.40;45.20;;;;;;4997173;28;20474;-88
2021/07/12 12:00:10;;;;;;;1.53;1.43;;;37.30;45.20;;;;;;4996238;28;20481;-89
2021/07/12 12:02:37;;;;;;;1.70;1.60;;;37.20;45.40;;;;;;4997048;28;20486;-88
2021/07/12 12:05:08;;;;;;;2.60;2.00;;;36.80;44.00;;;;;;4996855;28;20447;-87
2021/07/12 12:07:41;;;;;;;2.37;2.17;;;35.80;44.80;;;;;;4996470;28;20451;-88
2021/07/12 12:10:13;;;;;;;1.87;1.70;;;35.70;46.00;;;;;;4998220;28;20575;-89
2021/07/12 12:12:44;;;;;;;2.73;1.83;;;35.90;45.30;;;;;;4997233;28;20454;-88
2021/07/12 12:15:14;;;;;;;1.80;1.70;;;35.30;46.70;;;;;;4998479;28;20447;-88
2021/07/12 12:17:46;;;;;;;2.30;2.10;;;34.90;47.90;;;;;;5013063;28;20442;-88
2021/07/12 12:20:27;;;;;;;5.30;2.20;;;35.40;47.10;;;;;;5004614;28;20992;-87
2021/07/12 12:23:04;;;;;;;2.17;1.97;;;37.00;45.60;;;;;;5006279;28;20479;-88
2021/07/12 12:25:36;;;;;;;2.63;2.40;;;37.80;42.60;;;;;;4996627;28;20443;-88
2021/07/12 12:28:08;;;;;;;2.23;2.13;;;37.70;42.60;;;;;;5007582;28;20455;-88
2021/07/12 12:30:36;;;;;;;1.43;1.33;;;36.90;44.60;;;;;;4997248;28;20451;-88
2021/07/12 12:33:04;;;;;;;2.00;1.90;;;36.80;43.90;;;;;;4997053;28;20956;-88
2021/07/12 12:35:32;;;;;;;3.13;2.07;;;36.20;44.40;;;;;;5013725;28;20501;-87
2021/07/12 12:38:11;;;;;;;2.10;1.90;;;35.70;44.70;;;;;;5012940;28;20511;-88
2021/07/12 12:40:40;;;;;;;4.23;3.83;;;35.30;46.20;;;;;;5015131;28;20461;-87
2021/07/12 12:43:13;;;;;;;3.53;1.90;;;36.10;45.70;;;;;;5003732;28;20486;-88
2021/07/12 12:45:47;;;;;;;1.93;1.83;;;36.90;44.00;;;;;;4996713;28;20446;-87
2021/07/12 12:48:30;;;;;;;1.97;1.87;;;38.60;41.40;;;;;;4996373;28;20505;-87
2021/07/12 12:50:57;;;;;;;1.90;1.80;;;39.60;41.20;;;;;;4996735;28;21197;-88
2021/07/12 12:53:32;;;;;;;3.53;2.40;;;39.90;40.30;;;;;;5000262;28;20449;-88
2021/07/12 12:56:01;;;;;;;1.93;1.83;;;40.00;40.00;;;;;;5014220;28;20403;-88
2021/07/12 12:58:29;;;;;;;2.00;1.80;;;39.50;40.00;;;;;;5008406;28;20482;-88
2021/07/12 13:00:56;;;;;;;2.60;2.40;;;38.70;41.30;;;;;;5003334;28;20541;-88
2021/07/12 13:03:26;;;;;;;1.50;1.40;;;39.40;40.50;;;;;;4999340;28;20851;-88
2021/07/12 13:06:06;;;;;;;2.10;1.90;;;39.20;40.00;;;;;;4996751;28;20932;-88
2021/07/12 13:08:32;;;;;;;2.60;2.40;;;40.00;38.90;;;;;;4995596;28;20474;-88
2021/07/12 13:11:01;;;;;;;1.80;1.70;;;39.50;39.80;;;;;;4995746;28;20518;-88
2021/07/12 13:13:31;;;;;;;2.80;2.00;;;39.50;39.70;;;;;;4998549;28;20450;-89
2021/07/12 13:16:11;;;;;;;1.90;1.80;;;39.00;41.40;;;;;;4999485;28;20447;-88
2021/07/12 13:18:38;;;;;;;2.10;1.97;;;38.70;41.40;;;;;;4996510;28;20462;-87
2021/07/12 13:21:12;;;;;;;1.80;1.70;;;37.30;43.40;;;;;;4998220;28;20466;-89
2021/07/12 13:23:47;;;;;;;2.17;1.97;;;35.90;43.70;;;;;;5001126;28;20518;-88
2021/07/12 13:26:20;;;;;;;2.03;1.93;;;34.70;46.40;;;;;;4997066;28;20839;-89
2021/07/12 13:28:50;;;;;;;2.43;2.23;;;34.00;47.60;;;;;;4996785;28;20475;-89
2021/07/12 13:34:08;;;;;;;2.33;2.13;;;33.00;49.70;;;;;;4994766;28;20458;-89
2021/07/12 13:36:42;;;;;;;2.47;2.27;;;32.80;50.70;;;;;;4998988;28;20512;-88
2021/07/12 13:39:09;;;;;;;2.77;2.57;;;32.80;51.30;;;;;;4999303;28;20489;-89
2021/07/12 13:41:36;;;;;;;3.30;2.77;;;32.80;51.70;;;;;;4999239;28;20975;-88
2021/07/12 13:44:08;;;;;;;2.57;2.37;;;32.70;51.80;;;;;;4997777;28;20534;-86
2021/07/12 13:46:37;;;;;;;4.23;3.17;;;32.70;52.10;;;;;;4998768;28;20451;-89
2021/07/12 13:49:04;;;;;;;2.50;2.30;;;32.60;52.10;;;;;;4996243;28;20527;-89
2021/07/12 13:51:48;;;;;;;2.70;2.50;;;32.30;52.00;;;;;;4998399;28;20462;-89
2021/07/12 13:54:27;;;;;;;4.60;2.40;;;31.90;53.10;;;;;;4999226;28;20451;-89
2021/07/12 13:57:20;;;;;;;3.23;2.83;;;31.80;53.50;;;;;;5004526;28;20506;-89
2021/07/12 14:00:05;;;;;;;2.83;2.63;;;32.00;52.90;;;;;;4996691;28;20477;-90
2021/07/12 14:02:37;;;;;;;3.53;2.80;;;31.50;54.30;;;;;;4999327;28;20471;-88
2021/07/12 14:05:14;;;;;;;2.17;1.97;;;31.30;55.30;;;;;;4999093;28;20454;-89
2021/07/12 14:07:43;;;;;;;2.17;1.97;;;31.00;54.90;;;;;;5004032;28;20546;-87
2021/07/12 14:10:17;;;;;;;2.27;2.07;;;32.30;53.70;;;;;;5004861;28;20578;-88
2021/07/12 14:12:47;;;;;;;2.03;1.93;;;33.10;51.10;;;;;;5009720;28;20447;-89
2021/07/12 14:15:22;;;;;;;2.47;2.37;;;32.80;52.60;;;;;;5001851;28;20451;-87
2021/07/12 14:17:55;;;;;;;2.63;2.40;;;32.30;53.00;;;;;;5000575;28;20447;-88
2021/07/12 14:20:32;;;;;;;2.73;2.53;;;32.30;52.70;;;;;;4994547;28;21129;-88
2021/07/12 14:23:00;;;;;;;2.27;2.07;;;32.20;53.10;;;;;;4991365;28;20479;-89
2021/07/12 14:25:36;;;;;;;3.93;1.90;;;32.10;53.90;;;;;;4997442;28;20470;-89
2021/07/12 14:28:06;;;;;;;2.40;2.20;;;32.10;54.40;;;;;;4988385;28;20526;-90
2021/07/12 14:30:35;;;;;;;3.47;2.17;;;33.10;53.70;;;;;;4982730;28;20483;-89
2021/07/12 14:33:02;;;;;;;2.97;2.77;;;33.20;52.80;;;;;;4995841;28;20524;-89
2021/07/12 14:35:34;;;;;;;3.10;2.90;;;33.20;52.90;;;;;;4979448;28;20808;-90
2021/07/12 14:38:03;;;;;;;3.20;2.30;;;33.10;53.50;;;;;;4997633;28;20454;-90
2021/07/12 14:40:42;;;;;;;2.87;2.63;;;32.40;54.20;;;;;;4999186;28;20519;-89
2021/07/12 14:43:11;;;;;;;5.83;2.80;;;31.30;55.20;;;;;;4994074;28;20503;-90
2021/07/12 14:45:42;;;;;;;2.60;2.40;;;31.00;56.30;;;;;;4988561;28;20933;-89
2021/07/12 14:48:15;;;;;;;3.13;2.83;;;30.70;57.30;;;;;;4987461;28;20477;-88
2021/07/12 14:50:43;;;;;;;2.73;2.53;;;30.50;57.60;;;;;;5003966;28;20448;-89
2021/07/12 14:53:10;;;;;;;2.77;2.50;;;30.50;58.20;;;;;;4999201;28;20443;-89
2021/07/12 14:55:37;;;;;;;3.07;2.77;;;30.40;58.70;;;;;;5016363;28;20429;-87
2021/07/12 14:58:06;;;;;;;3.00;2.80;;;30.30;58.90;;;;;;5002564;28;20467;-90
2021/07/12 15:00:32;;;;;;;4.30;4.00;;;30.10;59.10;;;;;;4996875;28;20471;-89
2021/07/12 15:03:01;;;;;;;3.03;2.80;;;30.20;59.60;;;;;;5009039;28;20486;-90
2021/07/12 15:05:28;;;;;;;2.90;2.70;;;30.20;59.70;;;;;;5011386;28;20459;-89
2021/07/12 15:07:57;;;;;;;3.17;2.87;;;30.20;59.40;;;;;;5015470;28;20439;-87
2021/07/12 15:10:24;;;;;;;2.80;2.60;;;30.10;59.60;;;;;;5020144;28;20475;-88
2021/07/12 15:12:51;;;;;;;3.70;3.40;;;30.20;60.90;;;;;;5020660;28;20510;-89
2021/07/12 15:15:18;;;;;;;4.30;3.07;;;30.30;60.00;;;;;;5008708;28;20469;-88
2021/07/12 15:17:45;;;;;;;3.20;3.00;;;30.20;59.60;;;;;;4990785;28;20452;-87
2021/07/12 15:20:15;;;;;;;3.33;3.03;;;30.30;60.00;;;;;;5001994;28;20509;-88
2021/07/12 15:22:45;;;;;;;4.10;3.70;;;30.20;59.90;;;;;;5006596;28;20526;-88
2021/07/12 15:25:16;;;;;;;2.70;2.50;;;30.30;60.80;;;;;;5007572;28;20515;-88
2021/07/12 15:27:45;;;;;;;3.40;2.80;;;30.20;60.70;;;;;;4985882;28;20484;-87
2021/07/12 15:30:14;;;;;;;3.30;2.93;;;30.10;60.20;;;;;;4986766;28;20459;-87
2021/07/12 15:32:41;;;;;;;3.00;2.70;;;29.80;59.90;;;;;;4999184;28;20447;-88
2021/07/12 15:35:13;;;;;;;3.07;2.83;;;29.60;61.20;;;;;;4987734;28;20531;-88
2021/07/12 15:37:46;;;;;;;2.50;2.30;;;29.50;61.40;;;;;;4995142;28;20936;-88
2021/07/12 15:43:31;;;;;;;2.83;2.63;;;29.40;62.10;;;;;;4944537;29;20489;-84
2021/07/12 15:46:10;;;;;;;2.63;2.43;;;29.40;61.90;;;;;;4964874;28;20527;-83
2021/07/12 15:48:57;;;;;;;2.80;2.60;;;29.20;63.00;;;;;;4992920;28;21034;-84
2021/07/12 15:52:00;;;;;;;3.13;2.53;;;29.30;62.80;;;;;;4995153;28;20895;-85
2021/07/12 15:57:54;;;;;;;2.80;2.60;;;29.30;62.90;;;;;;4963865;28;20438;-85
2021/07/12 16:04:06;;;;;;;3.03;2.73;;;29.20;63.60;;;;;;5005163;28;20877;-85
2021/07/12 16:10:38;;;;;;;;;;;;;;;;;;;;;
2021/07/12 16:13:21;;;;;;;3.10;2.63;;;28.80;63.40;;;;;;4987932;28;20753;-85
2021/07/12 16:18:53;;;;;;;2.43;2.23;;;28.70;66.20;;;;;;4999402;23;20554;-92
2021/07/12 16:21:23;;;;;;;2.87;2.67;;;28.90;65.20;;;;;;5028414;28;20462;-92
2021/07/12 16:23:57;;;;;;;2.53;2.33;;;29.00;64.30;;;;;;5027403;28;20469;-91
2021/07/12 16:26:25;;;;;;;4.17;2.97;;;28.80;62.80;;;;;;5022074;28;20962;-91
2021/07/12 16:28:54;;;;;;;2.87;2.67;;;28.70;63.30;;;;;;5020377;28;20470;-92
2021/07/12 16:31:21;;;;;;;3.20;3.00;;;28.70;64.20;;;;;;5021003;28;20453;-92
2021/07/12 16:33:51;;;;;;;2.43;2.23;;;28.70;64.60;;;;;;5017817;28;20436;-91
2021/07/12 16:36:26;;;;;;;2.70;2.50;;;28.60;64.80;;;;;;5018952;28;20430;-92
2021/07/12 16:38:53;;;;;;;5.53;2.97;;;28.70;65.30;;;;;;5019003;28;20445;-92
2021/07/12 16:41:23;;;;;;;2.93;2.70;;;28.80;64.00;;;;;;5024395;28;20472;-91
2021/07/12 16:43:54;;;;;;;3.00;2.80;;;28.90;63.90;;;;;;5023347;28;20853;-91
2021/07/12 16:46:22;;;;;;;3.60;3.00;;;29.00;64.80;;;;;;5032420;28;20459;-91
2021/07/12 16:48:49;;;;;;;3.13;2.90;;;29.10;65.20;;;;;;5024356;28;20508;-92
2021/07/12 16:51:16;;;;;;;2.73;2.53;;;29.00;65.10;;;;;;5016375;28;20453;-91
2021/07/12 16:53:43;;;;;;;3.10;2.90;;;29.10;65.60;;;;;;5021423;28;20429;-90
2021/07/12 16:56:10;;;;;;;3.27;2.97;;;28.90;65.50;;;;;;5017871;28;20456;-90
2021/07/12 16:58:37;;;;;;;3.53;3.10;;;28.70;66.20;;;;;;5015668;28;20478;-90
2021/07/12 17:01:06;;;;;;;3.30;2.70;;;28.70;66.30;;;;;;5015327;28;20446;-91
2021/07/12 17:03:38;;;;;;;3.70;3.40;;;28.60;67.10;;;;;;5017415;28;20473;-92
2021/07/12 17:06:08;;;;;;;4.47;3.33;;;28.50;67.20;;;;;;5017971;28;20967;-93
2021/07/12 17:08:36;;;;;;;3.00;2.70;;;28.60;66.90;;;;;;5015991;28;20443;-90
2021/07/12 17:11:04;;;;;;;3.50;3.20;;;28.60;66.80;;;;;;5019163;28;20465;-90
2021/07/12 17:13:34;;;;;;;3.10;2.83;;;28.60;67.30;;;;;;5016129;28;20440;-90
2021/07/12 17:16:00;;;;;;;3.20;2.97;;;28.50;67.40;;;;;;5015243;28;20896;-91
2021/07/12 17:18:29;;;;;;;2.70;2.50;;;28.50;67.40;;;;;;5010430;28;20824;-91
2021/07/12 17:20:56;;;;;;;2.60;2.40;;;28.50;67.20;;;;;;5014629;28;20540;-91
2021/07/12 17:23:24;;;;;;;3.90;3.50;;;28.40;67.80;;;;;;5015539;28;21018;-91
2021/07/12 17:25:51;;;;;;;3.00;2.80;;;28.50;67.90;;;;;;5017114;28;20441;-92
2021/07/12 17:28:18;;;;;;;3.10;2.80;;;28.40;67.40;;;;;;5020341;28;20434;-92
2021/07/12 17:30:45;;;;;;;2.63;2.43;;;28.30;67.90;;;;;;5012025;28;20798;-91